sensor_id;sensor_type;location;lat;lon;timestamp;pressure;altitude;pressure_sealevel;temperature;humidity
70982;BME280;58640;51.320;9.456;2022-09-17T00:01:53;98654.06;;;10.93;77.91
70982;BME280;58640;51.320;9.456;2022-09-17T00:04:19;98647.69;;;11.00;77.13
70982;BME280;58640;51.320;9.456;2022-09-17T00:06:44;98650.13;;;10.95;77.52
70982;BME280;58640;51.320;9.456;2022-09-17T00:09:10;98651.50;;;10.85;77.98
70982;BME280;58640;51.320;9.456;2022-09-17T00:11:39;98652.63;;;10.97;76.89
70982;BME280;58640;51.320;9.456;2022-09-17T00:14:06;98652.66;;;11.03;76.41
70982;BME280;58640;51.320;9.456;2022-09-17T00:16:42;98652.94;;;11.15;76.11
70982;BME280;58640;51.320;9.456;2022-09-17T00:19:18;98660.22;;;11.21;75.81
70982;BME280;58640;51.320;9.456;2022-09-17T00:21:44;98659.34;;;11.14;75.98
70982;BME280;58640;51.320;9.456;2022-09-17T00:24:11;98665.66;;;11.00;76.52
70982;BME280;58640;51.320;9.456;2022-09-17T00:26:37;98654.75;;;11.08;76.74
70982;BME280;58640;51.320;9.456;2022-09-17T00:29:02;98654.88;;;10.93;76.72
70982;BME280;58640;51.320;9.456;2022-09-17T00:31:29;98657.84;;;11.05;76.41
70982;BME280;58640;51.320;9.456;2022-09-17T00:33:54;98657.69;;;11.13;76.06
70982;BME280;58640;51.320;9.456;2022-09-17T00:36:21;98659.66;;;10.98;76.76
70982;BME280;58640;51.320;9.456;2022-09-17T00:38:57;98657.31;;;10.88;77.35
70982;BME280;58640;51.320;9.456;2022-09-17T00:41:26;98664.63;;;10.94;77.68
70982;BME280;58640;51.320;9.456;2022-09-17T00:43:55;98658.00;;;10.97;76.99
70982;BME280;58640;51.320;9.456;2022-09-17T00:46:36;98656.53;;;10.94;77.14
70982;BME280;58640;51.320;9.456;2022-09-17T00:49:16;98656.97;;;10.98;77.47
70982;BME280;58640;51.320;9.456;2022-09-17T00:51:53;98649.53;;;11.00;77.44
70982;BME280;58640;51.320;9.456;2022-09-17T00:54:21;98642.09;;;11.02;77.69
70982;BME280;58640;51.320;9.456;2022-09-17T00:56:47;98648.22;;;10.89;78.20
70982;BME280;58640;51.320;9.456;2022-09-17T00:59:13;98648.22;;;10.89;78.22
70982;BME280;58640;51.320;9.456;2022-09-17T01:01:39;98651.06;;;10.81;78.29
70982;BME280;58640;51.320;9.456;2022-09-17T01:04:04;98650.69;;;10.84;79.06
70982;BME280;58640;51.320;9.456;2022-09-17T01:09:18;98659.38;;;10.86;79.31
70982;BME280;58640;51.320;9.456;2022-09-17T01:17:45;98663.00;;;10.72;80.93
70982;BME280;58640;51.320;9.456;2022-09-17T01:22:59;98652.97;;;10.60;82.36
70982;BME280;58640;51.320;9.456;2022-09-17T01:25:45;98658.97;;;10.62;82.65
70982;BME280;58640;51.320;9.456;2022-09-17T01:31:26;98667.00;;;10.83;80.99
70982;BME280;58640;51.320;9.456;2022-09-17T01:34:21;98663.28;;;10.84;81.22
70982;BME280;58640;51.320;9.456;2022-09-17T01:39:38;98685.72;;;10.70;82.63
70982;BME280;58640;51.320;9.456;2022-09-17T01:42:23;98678.41;;;10.85;81.92
70982;BME280;58640;51.320;9.456;2022-09-17T01:44:55;98683.59;;;10.86;82.27
70982;BME280;58640;51.320;9.456;2022-09-17T01:47:33;98689.56;;;10.82;82.46
70982;BME280;58640;51.320;9.456;2022-09-17T01:50:03;98689.19;;;10.85;82.48
70982;BME280;58640;51.320;9.456;2022-09-17T01:52:32;98694.50;;;10.78;82.67
70982;BME280;58640;51.320;9.456;2022-09-17T01:55:03;98689.19;;;10.85;82.55
70982;BME280;58640;51.320;9.456;2022-09-17T01:57:57;98690.38;;;10.82;82.52
70982;BME280;58640;51.320;9.456;2022-09-17T02:00:27;98694.91;;;10.75;82.94
70982;BME280;58640;51.320;9.456;2022-09-17T02:02:54;98704.03;;;10.81;82.45
70982;BME280;58640;51.320;9.456;2022-09-17T02:05:28;98699.69;;;10.80;82.67
70982;BME280;58640;51.320;9.456;2022-09-17T02:07:58;98693.13;;;10.89;82.55
70982;BME280;58640;51.320;9.456;2022-09-17T02:10:34;98699.66;;;11.01;81.79
70982;BME280;58640;51.320;9.456;2022-09-17T02:13:07;98695.16;;;10.87;82.54
70982;BME280;58640;51.320;9.456;2022-09-17T02:15:38;98699.19;;;10.97;82.17
70982;BME280;58640;51.320;9.456;2022-09-17T02:18:10;98708.97;;;11.05;82.08
70982;BME280;58640;51.320;9.456;2022-09-17T02:20:44;98701.44;;;10.94;83.21
70982;BME280;58640;51.320;9.456;2022-09-17T02:23:16;98701.25;;;10.95;82.88
70982;BME280;58640;51.320;9.456;2022-09-17T02:26:02;98705.03;;;11.01;83.45
70982;BME280;58640;51.320;9.456;2022-09-17T02:31:03;98710.81;;;11.04;82.83
70982;BME280;58640;51.320;9.456;2022-09-17T02:33:29;98709.63;;;11.07;82.78
70982;BME280;58640;51.320;9.456;2022-09-17T02:35:57;98703.78;;;11.03;82.98
70982;BME280;58640;51.320;9.456;2022-09-17T02:38:28;98705.41;;;10.98;83.50
70982;BME280;58640;51.320;9.456;2022-09-17T02:41:20;98704.63;;;11.04;83.16
70982;BME280;58640;51.320;9.456;2022-09-17T02:49:07;98703.09;;;10.95;83.17
70982;BME280;58640;51.320;9.456;2022-09-17T02:54:25;98712.06;;;11.02;82.89
70982;BME280;58640;51.320;9.456;2022-09-17T02:57:03;98716.66;;;11.08;83.07
70982;BME280;58640;51.320;9.456;2022-09-17T03:02:29;98713.84;;;10.95;83.85
70982;BME280;58640;51.320;9.456;2022-09-17T03:04:56;98706.69;;;11.02;83.25
70982;BME280;58640;51.320;9.456;2022-09-17T03:07:22;98699.78;;;10.93;83.63
70982;BME280;58640;51.320;9.456;2022-09-17T03:09:48;98710.47;;;11.07;82.47
70982;BME280;58640;51.320;9.456;2022-09-17T03:12:14;98715.00;;;11.07;82.49
70982;BME280;58640;51.320;9.456;2022-09-17T03:14:39;98709.81;;;11.05;82.23
70982;BME280;58640;51.320;9.456;2022-09-17T03:17:05;98708.06;;;10.91;82.66
70982;BME280;58640;51.320;9.456;2022-09-17T03:19:30;98714.31;;;10.98;82.43
70982;BME280;58640;51.320;9.456;2022-09-17T03:21:56;98713.91;;;11.01;81.92
70982;BME280;58640;51.320;9.456;2022-09-17T03:24:21;98718.22;;;10.96;81.74
70982;BME280;58640;51.320;9.456;2022-09-17T03:26:46;98724.44;;;10.96;82.30
70982;BME280;58640;51.320;9.456;2022-09-17T03:29:13;98727.31;;;10.95;83.02
70982;BME280;58640;51.320;9.456;2022-09-17T03:31:39;98726.25;;;10.89;83.09
70982;BME280;58640;51.320;9.456;2022-09-17T03:34:04;98726.31;;;10.96;82.35
70982;BME280;58640;51.320;9.456;2022-09-17T03:36:29;98723.38;;;10.91;83.06
70982;BME280;58640;51.320;9.456;2022-09-17T03:38:55;98734.53;;;10.88;82.90
70982;BME280;58640;51.320;9.456;2022-09-17T03:41:21;98727.09;;;10.90;82.38
70982;BME280;58640;51.320;9.456;2022-09-17T03:43:47;98734.13;;;10.91;82.79
70982;BME280;58640;51.320;9.456;2022-09-17T03:46:12;98732.50;;;10.96;82.18
70982;BME280;58640;51.320;9.456;2022-09-17T03:48:38;98731.88;;;10.94;81.79
70982;BME280;58640;51.320;9.456;2022-09-17T03:51:04;98743.59;;;10.87;81.16
70982;BME280;58640;51.320;9.456;2022-09-17T03:53:30;98747.84;;;10.75;81.88
70982;BME280;58640;51.320;9.456;2022-09-17T03:56:00;98749.31;;;10.77;82.00
70982;BME280;58640;51.320;9.456;2022-09-17T03:58:29;98740.84;;;10.80;81.64
70982;BME280;58640;51.320;9.456;2022-09-17T04:00:55;98753.16;;;10.68;82.49
70982;BME280;58640;51.320;9.456;2022-09-17T04:03:22;98764.00;;;10.75;82.21
70982;BME280;58640;51.320;9.456;2022-09-17T04:05:48;98765.44;;;10.77;81.86
70982;BME280;58640;51.320;9.456;2022-09-17T04:08:13;98767.47;;;10.69;81.99
70982;BME280;58640;51.320;9.456;2022-09-17T04:10:39;98768.53;;;10.74;81.98
70982;BME280;58640;51.320;9.456;2022-09-17T04:13:04;98768.13;;;10.77;81.45
70982;BME280;58640;51.320;9.456;2022-09-17T04:15:29;98768.47;;;10.68;81.62
70982;BME280;58640;51.320;9.456;2022-09-17T04:17:56;98780.00;;;10.62;82.18
70982;BME280;58640;51.320;9.456;2022-09-17T04:20:24;98784.47;;;10.76;81.41
70982;BME280;58640;51.320;9.456;2022-09-17T04:22:50;98781.78;;;10.76;81.40
70982;BME280;58640;51.320;9.456;2022-09-17T04:25:16;98784.16;;;10.85;79.70
70982;BME280;58640;51.320;9.456;2022-09-17T04:27:42;98788.59;;;10.72;79.92
70982;BME280;58640;51.320;9.456;2022-09-17T04:30:08;98789.97;;;10.68;80.23
70982;BME280;58640;51.320;9.456;2022-09-17T04:32:33;98792.06;;;10.66;80.56
70982;BME280;58640;51.320;9.456;2022-09-17T04:34:59;98791.00;;;10.67;80.04
70982;BME280;58640;51.320;9.456;2022-09-17T04:37:24;98793.97;;;10.72;79.75
70982;BME280;58640;51.320;9.456;2022-09-17T04:39:50;98794.16;;;10.70;79.01
70982;BME280;58640;51.320;9.456;2022-09-17T04:42:16;98787.09;;;10.69;78.84
70982;BME280;58640;51.320;9.456;2022-09-17T04:44:41;98797.16;;;10.61;79.48
70982;BME280;58640;51.320;9.456;2022-09-17T04:47:07;98790.88;;;10.54;79.72
70982;BME280;58640;51.320;9.456;2022-09-17T04:49:32;98806.69;;;10.63;79.06
70982;BME280;58640;51.320;9.456;2022-09-17T04:51:57;98804.13;;;10.55;78.75
70982;BME280;58640;51.320;9.456;2022-09-17T04:54:23;98810.84;;;10.45;79.63
70982;BME280;58640;51.320;9.456;2022-09-17T04:56:49;98807.66;;;10.56;79.06
70982;BME280;58640;51.320;9.456;2022-09-17T04:59:14;98817.50;;;10.49;79.54
70982;BME280;58640;51.320;9.456;2022-09-17T05:01:40;98817.50;;;10.49;79.43
70982;BME280;58640;51.320;9.456;2022-09-17T05:04:06;98805.66;;;10.43;79.51
70982;BME280;58640;51.320;9.456;2022-09-17T05:06:31;98815.78;;;10.41;79.62
70982;BME280;58640;51.320;9.456;2022-09-17T05:08:57;98817.84;;;10.60;78.29
70982;BME280;58640;51.320;9.456;2022-09-17T05:11:22;98820.66;;;10.52;78.45
70982;BME280;58640;51.320;9.456;2022-09-17T05:13:47;98814.63;;;10.50;78.49
70982;BME280;58640;51.320;9.456;2022-09-17T05:16:13;98821.34;;;10.40;78.77
70982;BME280;58640;51.320;9.456;2022-09-17T05:18:38;98819.69;;;10.39;78.99
70982;BME280;58640;51.320;9.456;2022-09-17T05:21:04;98818.00;;;10.38;78.86
70982;BME280;58640;51.320;9.456;2022-09-17T05:23:29;98819.88;;;10.37;78.99
70982;BME280;58640;51.320;9.456;2022-09-17T05:25:59;98822.41;;;10.45;77.84
70982;BME280;58640;51.320;9.456;2022-09-17T05:28:25;98827.88;;;10.52;77.70
70982;BME280;58640;51.320;9.456;2022-09-17T05:30:50;98831.66;;;10.57;77.22
70982;BME280;58640;51.320;9.456;2022-09-17T05:33:15;98840.25;;;10.46;77.75
70982;BME280;58640;51.320;9.456;2022-09-17T05:35:41;98840.13;;;10.54;77.24
70982;BME280;58640;51.320;9.456;2022-09-17T05:38:08;98838.50;;;10.39;77.58
70982;BME280;58640;51.320;9.456;2022-09-17T05:40:34;98840.25;;;10.46;77.59
70982;BME280;58640;51.320;9.456;2022-09-17T05:43:00;98845.56;;;10.61;77.04
70982;BME280;58640;51.320;9.456;2022-09-17T05:45:26;98845.31;;;10.56;77.42
70982;BME280;58640;51.320;9.456;2022-09-17T05:47:59;98845.03;;;10.51;77.40
70982;BME280;58640;51.320;9.456;2022-09-17T05:50:26;98846.50;;;10.53;77.56
70982;BME280;58640;51.320;9.456;2022-09-17T05:52:53;98855.38;;;10.68;76.39
70982;BME280;58640;51.320;9.456;2022-09-17T05:55:19;98859.28;;;10.66;75.87
70982;BME280;58640;51.320;9.456;2022-09-17T05:57:47;98859.47;;;10.64;75.80
70982;BME280;58640;51.320;9.456;2022-09-17T06:00:12;98859.47;;;10.64;76.14
70982;BME280;58640;51.320;9.456;2022-09-17T06:02:38;98855.13;;;10.49;77.27
70982;BME280;58640;51.320;9.456;2022-09-17T06:05:04;98860.28;;;10.65;75.78
70982;BME280;58640;51.320;9.456;2022-09-17T06:07:29;98859.91;;;10.68;75.57
70982;BME280;58640;51.320;9.456;2022-09-17T06:09:55;98865.28;;;10.68;75.19
70982;BME280;58640;51.320;9.456;2022-09-17T06:12:20;98865.28;;;10.68;75.66
70982;BME280;58640;51.320;9.456;2022-09-17T06:14:46;98865.44;;;10.81;75.26
70982;BME280;58640;51.320;9.456;2022-09-17T06:17:12;98861.22;;;10.93;74.81
70982;BME280;58640;51.320;9.456;2022-09-17T06:19:37;98859.75;;;10.90;75.04
70982;BME280;58640;51.320;9.456;2022-09-17T06:22:02;98868.22;;;11.08;74.34
70982;BME280;58640;51.320;9.456;2022-09-17T06:24:30;98866.59;;;11.14;73.82
70982;BME280;58640;51.320;9.456;2022-09-17T06:26:55;98863.75;;;11.22;73.53
70982;BME280;58640;51.320;9.456;2022-09-17T06:29:21;98866.97;;;11.32;73.24
70982;BME280;58640;51.320;9.456;2022-09-17T06:31:47;98873.41;;;11.31;72.78
70982;BME280;58640;51.320;9.456;2022-09-17T06:34:12;98875.50;;;11.35;72.56
70982;BME280;58640;51.320;9.456;2022-09-17T06:36:38;98874.88;;;11.61;72.20
70982;BME280;58640;51.320;9.456;2022-09-17T06:39:03;98878.56;;;11.60;72.46
70982;BME280;58640;51.320;9.456;2022-09-17T06:41:28;98875.28;;;11.58;71.91
70982;BME280;58640;51.320;9.456;2022-09-17T06:43:54;98878.84;;;11.65;72.08
70982;BME280;58640;51.320;9.456;2022-09-17T06:46:20;98883.50;;;11.77;71.64
70982;BME280;58640;51.320;9.456;2022-09-17T06:48:45;98882.00;;;11.68;72.36
70982;BME280;58640;51.320;9.456;2022-09-17T06:51:10;98881.47;;;11.79;70.70
70982;BME280;58640;51.320;9.456;2022-09-17T06:53:37;98875.13;;;11.94;70.77
70982;BME280;58640;51.320;9.456;2022-09-17T06:56:03;98889.56;;;12.14;69.83
70982;BME280;58640;51.320;9.456;2022-09-17T06:58:29;98882.94;;;12.16;69.75
70982;BME280;58640;51.320;9.456;2022-09-17T07:01:02;98887.94;;;12.66;67.95
70982;BME280;58640;51.320;9.456;2022-09-17T07:03:28;98887.25;;;13.05;66.12
70982;BME280;58640;51.320;9.456;2022-09-17T07:05:54;98883.13;;;13.29;65.42
70982;BME280;58640;51.320;9.456;2022-09-17T07:10:57;98874.84;;;13.37;65.83
70982;BME280;58640;51.320;9.456;2022-09-17T07:13:23;98886.03;;;13.66;64.23
70982;BME280;58640;51.320;9.456;2022-09-17T07:15:59;98879.41;;;13.49;63.69
70982;BME280;58640;51.320;9.456;2022-09-17T07:18:26;98889.25;;;12.90;65.02
70982;BME280;58640;51.320;9.456;2022-09-17T07:20:58;98884.44;;;12.79;65.93
70982;BME280;58640;51.320;9.456;2022-09-17T07:23:27;98887.81;;;12.87;65.66
70982;BME280;58640;51.320;9.456;2022-09-17T07:25:55;98891.44;;;13.20;64.83
70982;BME280;58640;51.320;9.456;2022-09-17T07:28:21;98882.75;;;13.51;64.26
70982;BME280;58640;51.320;9.456;2022-09-17T07:30:48;98887.47;;;13.88;61.77
70982;BME280;58640;51.320;9.456;2022-09-17T07:33:14;98874.84;;;13.56;62.08
70982;BME280;58640;51.320;9.456;2022-09-17T07:35:40;98885.81;;;13.22;63.65
70982;BME280;58640;51.320;9.456;2022-09-17T07:38:05;98887.66;;;13.15;65.29
70982;BME280;58640;51.320;9.456;2022-09-17T07:40:30;98890.59;;;13.20;63.69
70982;BME280;58640;51.320;9.456;2022-09-17T07:42:56;98882.28;;;13.21;63.42
70982;BME280;58640;51.320;9.456;2022-09-17T07:45:22;98887.69;;;13.21;62.77
70982;BME280;58640;51.320;9.456;2022-09-17T07:47:48;98897.25;;;13.44;62.07
70982;BME280;58640;51.320;9.456;2022-09-17T07:50:13;98893.94;;;13.81;61.03
70982;BME280;58640;51.320;9.456;2022-09-17T07:52:44;98881.84;;;14.03;60.83
70982;BME280;58640;51.320;9.456;2022-09-17T07:55:10;98891.63;;;14.04;59.56
70982;BME280;58640;51.320;9.456;2022-09-17T07:57:36;98885.50;;;14.41;59.24
70982;BME280;58640;51.320;9.456;2022-09-17T08:00:01;98882.81;;;14.34;59.07
70982;BME280;58640;51.320;9.456;2022-09-17T08:02:27;98873.69;;;14.80;57.24
70982;BME280;58640;51.320;9.456;2022-09-17T08:04:53;98885.81;;;14.77;56.23
70982;BME280;58640;51.320;9.456;2022-09-17T08:07:18;98888.97;;;14.68;57.12
70982;BME280;58640;51.320;9.456;2022-09-17T08:09:44;98885.78;;;14.20;58.14
70982;BME280;58640;51.320;9.456;2022-09-17T08:12:09;98887.69;;;13.93;59.04
70982;BME280;58640;51.320;9.456;2022-09-17T08:14:35;98892.63;;;14.35;57.77
70982;BME280;58640;51.320;9.456;2022-09-17T08:17:00;98896.41;;;14.15;57.86
70982;BME280;58640;51.320;9.456;2022-09-17T08:19:25;98883.09;;;14.26;58.06
70982;BME280;58640;51.320;9.456;2022-09-17T08:21:54;98890.13;;;14.40;58.25
70982;BME280;58640;51.320;9.456;2022-09-17T08:24:19;98886.91;;;14.63;57.61
70982;BME280;58640;51.320;9.456;2022-09-17T08:26:44;98885.22;;;14.62;57.58
70982;BME280;58640;51.320;9.456;2022-09-17T08:29:10;98894.25;;;14.43;57.69
70982;BME280;58640;51.320;9.456;2022-09-17T08:31:35;98896.75;;;14.38;57.15
70982;BME280;58640;51.320;9.456;2022-09-17T08:34:01;98888.13;;;15.05;55.42
70982;BME280;58640;51.320;9.456;2022-09-17T08:36:26;98891.03;;;14.72;55.85
70982;BME280;58640;51.320;9.456;2022-09-17T08:38:53;98884.78;;;14.65;55.94
70982;BME280;58640;51.320;9.456;2022-09-17T08:41:34;98899.59;;;15.07;56.23
70982;BME280;58640;51.320;9.456;2022-09-17T08:44:31;98896.31;;;14.98;54.98
70982;BME280;58640;51.320;9.456;2022-09-17T08:47:00;98890.56;;;15.13;53.43
70982;BME280;58640;51.320;9.456;2022-09-17T08:49:35;98877.03;;;15.50;54.24
70982;BME280;58640;51.320;9.456;2022-09-17T08:52:23;98890.22;;;15.89;51.68
70982;BME280;58640;51.320;9.456;2022-09-17T08:57:41;98888.56;;;15.64;51.96
70982;BME280;58640;51.320;9.456;2022-09-17T09:00:16;98904.25;;;15.24;53.68
70982;BME280;58640;51.320;9.456;2022-09-17T09:05:24;98906.47;;;15.09;53.65
70982;BME280;58640;51.320;9.456;2022-09-17T09:07:54;98895.59;;;14.72;54.33
70982;BME280;58640;51.320;9.456;2022-09-17T09:10:29;98906.44;;;14.72;55.05
70982;BME280;58640;51.320;9.456;2022-09-17T09:12:57;98907.88;;;14.81;55.23
70982;BME280;58640;51.320;9.456;2022-09-17T09:15:30;98911.75;;;14.47;55.09
70982;BME280;58640;51.320;9.456;2022-09-17T09:18:02;98907.19;;;14.34;55.71
70982;BME280;58640;51.320;9.456;2022-09-17T09:23:41;98895.66;;;14.52;55.62
70982;BME280;58640;51.320;9.456;2022-09-17T09:26:17;98906.59;;;14.83;55.72
70982;BME280;58640;51.320;9.456;2022-09-17T09:29:06;98902.09;;;15.02;53.37
70982;BME280;58640;51.320;9.456;2022-09-17T09:34:16;98899.56;;;15.51;52.88
70982;BME280;58640;51.320;9.456;2022-09-17T09:36:42;98900.94;;;15.60;51.69
70982;BME280;58640;51.320;9.456;2022-09-17T09:39:16;98903.13;;;15.69;50.18
70982;BME280;58640;51.320;9.456;2022-09-17T09:42:15;98907.31;;;15.41;51.25
70982;BME280;58640;51.320;9.456;2022-09-17T09:44:43;98894.81;;;15.02;51.91
70982;BME280;58640;51.320;9.456;2022-09-17T09:47:34;98910.41;;;14.69;52.07
70982;BME280;58640;51.320;9.456;2022-09-17T09:50:32;98915.56;;;14.84;51.44
70982;BME280;58640;51.320;9.456;2022-09-17T09:53:24;98909.00;;;15.04;50.99
70982;BME280;58640;51.320;9.456;2022-09-17T09:56:27;98908.81;;;14.99;50.84
70982;BME280;58640;51.320;9.456;2022-09-17T09:58:55;98913.28;;;15.18;50.11
70982;BME280;58640;51.320;9.456;2022-09-17T10:01:20;98909.69;;;15.24;49.44
70982;BME280;58640;51.320;9.456;2022-09-17T10:03:47;98907.78;;;15.31;49.85
70982;BME280;58640;51.320;9.456;2022-09-17T10:06:14;98909.00;;;15.66;48.23
70982;BME280;58640;51.320;9.456;2022-09-17T10:11:27;98894.22;;;16.30;46.50
70982;BME280;58640;51.320;9.456;2022-09-17T10:14:23;98909.59;;;16.18;44.88
70982;BME280;58640;51.320;9.456;2022-09-17T10:16:51;98892.94;;;16.32;45.85
70982;BME280;58640;51.320;9.456;2022-09-17T10:19:34;98914.91;;;16.67;45.66
70982;BME280;58640;51.320;9.456;2022-09-17T10:23:01;98903.81;;;16.68;44.31
70982;BME280;58640;51.320;9.456;2022-09-17T10:25:11;98903.28;;;16.42;43.76
70982;BME280;58640;51.320;9.456;2022-09-17T10:27:44;98902.72;;;16.58;43.67
70982;BME280;58640;51.320;9.456;2022-09-17T10:32:36;98889.66;;;16.48;42.13
70982;BME280;58640;51.320;9.456;2022-09-17T10:35:05;98893.50;;;16.59;41.84
70982;BME280;58640;51.320;9.456;2022-09-17T10:37:50;98889.09;;;16.76;43.66
70982;BME280;58640;51.320;9.456;2022-09-17T10:42:42;98890.69;;;16.47;43.12
70982;BME280;58640;51.320;9.456;2022-09-17T10:45:22;98887.53;;;16.98;44.38
70982;BME280;58640;51.320;9.456;2022-09-17T10:47:49;98888.13;;;17.18;42.20
70982;BME280;58640;51.320;9.456;2022-09-17T10:50:27;98891.47;;;17.02;42.65
70982;BME280;58640;51.320;9.456;2022-09-17T10:52:56;98875.97;;;16.91;42.34
70982;BME280;58640;51.320;9.456;2022-09-17T11:17:05;98899.94;;;14.79;54.95
70982;BME280;58640;51.320;9.456;2022-09-17T11:19:46;98892.16;;;14.96;56.53
70982;BME280;58640;51.320;9.456;2022-09-17T11:30:20;98897.94;;;15.37;59.46
70982;BME280;58640;51.320;9.456;2022-09-17T11:33:01;98897.94;;;15.06;59.94
70982;BME280;58640;51.320;9.456;2022-09-17T11:35:34;98891.00;;;14.79;58.61
70982;BME280;58640;51.320;9.456;2022-09-17T11:43:36;98886.06;;;15.00;58.32
70982;BME280;58640;51.320;9.456;2022-09-17T11:46:08;98876.75;;;14.96;58.34
70982;BME280;58640;51.320;9.456;2022-09-17T11:49:04;98872.13;;;14.97;57.76
70982;BME280;58640;51.320;9.456;2022-09-17T11:51:52;98860.56;;;14.83;57.50
70982;BME280;58640;51.320;9.456;2022-09-17T11:54:26;98863.75;;;14.74;57.93
70982;BME280;58640;51.320;9.456;2022-09-17T11:59:37;98858.09;;;14.75;58.35
70982;BME280;58640;51.320;9.456;2022-09-17T12:02:23;98868.13;;;14.68;57.33
70982;BME280;58640;51.320;9.456;2022-09-17T12:12:47;98883.56;;;13.71;62.23
70982;BME280;58640;51.320;9.456;2022-09-17T12:15:21;98881.44;;;13.27;65.25
70982;BME280;58640;51.320;9.456;2022-09-17T12:20:32;98877.72;;;13.87;64.08
70982;BME280;58640;51.320;9.456;2022-09-17T12:23:02;98852.13;;;13.90;68.97
70982;BME280;58640;51.320;9.456;2022-09-17T12:25:48;98842.94;;;14.10;69.12
70982;BME280;58640;51.320;9.456;2022-09-17T12:28:34;98832.66;;;14.45;64.20
70982;BME280;58640;51.320;9.456;2022-09-17T12:31:31;98837.75;;;14.66;64.55
70982;BME280;58640;51.320;9.456;2022-09-17T12:34:07;98831.63;;;14.84;63.82
70982;BME280;58640;51.320;9.456;2022-09-17T12:39:38;98822.63;;;14.90;63.09
70982;BME280;58640;51.320;9.456;2022-09-17T12:45:24;98832.59;;;14.58;60.98
70982;BME280;58640;51.320;9.456;2022-09-17T12:48:01;98835.22;;;14.27;62.06
70982;BME280;58640;51.320;9.456;2022-09-17T12:56:00;98839.19;;;14.11;62.10
70982;BME280;58640;51.320;9.456;2022-09-17T13:01:18;98842.34;;;14.02;60.45
70982;BME280;58640;51.320;9.456;2022-09-17T13:18:09;98803.66;;;13.95;59.64
70982;BME280;58640;51.320;9.456;2022-09-17T13:20:33;98811.38;;;13.91;58.32
70982;BME280;58640;51.320;9.456;2022-09-17T13:23:02;98816.13;;;14.02;59.07
70982;BME280;58640;51.320;9.456;2022-09-17T13:25:28;98811.91;;;14.26;59.29
70982;BME280;58640;51.320;9.456;2022-09-17T13:28:06;98810.31;;;14.56;57.24
70982;BME280;58640;51.320;9.456;2022-09-17T13:30:57;98808.78;;;14.66;57.13
70982;BME280;58640;51.320;9.456;2022-09-17T13:33:58;98799.03;;;14.65;55.08
70982;BME280;58640;51.320;9.456;2022-09-17T13:36:45;98811.13;;;14.63;55.51
70982;BME280;58640;51.320;9.456;2022-09-17T13:42:30;98797.97;;;14.98;53.96
70982;BME280;58640;51.320;9.456;2022-09-17T13:45:15;98806.59;;;15.13;53.48
70982;BME280;58640;51.320;9.456;2022-09-17T13:47:48;98814.41;;;15.03;52.95
70982;BME280;58640;51.320;9.456;2022-09-17T13:50:37;98815.06;;;14.98;51.88
70982;BME280;58640;51.320;9.456;2022-09-17T13:55:43;98810.19;;;14.82;52.47
70982;BME280;58640;51.320;9.456;2022-09-17T14:00:54;98803.34;;;14.73;52.71
70982;BME280;58640;51.320;9.456;2022-09-17T14:05:56;98802.81;;;14.58;54.59
70982;BME280;58640;51.320;9.456;2022-09-17T14:08:29;98802.94;;;14.69;54.00
70982;BME280;58640;51.320;9.456;2022-09-17T14:11:00;98796.47;;;14.77;54.03
70982;BME280;58640;51.320;9.456;2022-09-17T14:16:01;98787.47;;;14.83;53.33
70982;BME280;58640;51.320;9.456;2022-09-17T14:23:32;98796.53;;;14.64;54.42
70982;BME280;58640;51.320;9.456;2022-09-17T14:25:58;98798.78;;;14.36;54.09
70982;BME280;58640;51.320;9.456;2022-09-17T14:28:34;98824.59;;;14.19;57.28
70982;BME280;58640;51.320;9.456;2022-09-17T14:31:08;98819.50;;;13.91;58.97
70982;BME280;58640;51.320;9.456;2022-09-17T14:33:39;98824.94;;;13.72;59.93
70982;BME280;58640;51.320;9.456;2022-09-17T14:36:10;98824.09;;;13.65;58.96
70982;BME280;58640;51.320;9.456;2022-09-17T14:38:37;98813.72;;;13.62;61.32
70982;BME280;58640;51.320;9.456;2022-09-17T14:43:48;98813.50;;;13.44;63.74
70982;BME280;58640;51.320;9.456;2022-09-17T14:46:21;98807.50;;;13.48;63.46
70982;BME280;58640;51.320;9.456;2022-09-17T14:48:47;98813.50;;;13.44;64.28
70982;BME280;58640;51.320;9.456;2022-09-17T14:59:51;98863.38;;;13.28;63.86
70982;BME280;58640;51.320;9.456;2022-09-17T15:04:53;98846.94;;;12.37;66.38
70982;BME280;58640;51.320;9.456;2022-09-17T15:07:20;98857.84;;;12.16;66.14
70982;BME280;58640;51.320;9.456;2022-09-17T15:09:46;98864.88;;;12.10;66.97
70982;BME280;58640;51.320;9.456;2022-09-17T15:12:15;98857.84;;;12.16;65.89
70982;BME280;58640;51.320;9.456;2022-09-17T15:14:42;98856.78;;;12.10;66.50
70982;BME280;58640;51.320;9.456;2022-09-17T15:17:15;98857.78;;;12.03;67.41
70982;BME280;58640;51.320;9.456;2022-09-17T15:19:46;98857.81;;;12.09;66.87
70982;BME280;58640;51.320;9.456;2022-09-17T15:22:17;98863.78;;;12.05;67.50
70982;BME280;58640;51.320;9.456;2022-09-17T15:27:39;98843.81;;;11.93;67.07
70982;BME280;58640;51.320;9.456;2022-09-17T15:30:13;98856.66;;;11.91;67.59
70982;BME280;58640;51.320;9.456;2022-09-17T15:32:42;98860.19;;;11.91;68.28
70982;BME280;58640;51.320;9.456;2022-09-17T15:40:21;98847.84;;;12.10;67.39
70982;BME280;58640;51.320;9.456;2022-09-17T15:42:50;98857.19;;;12.07;67.57
70982;BME280;58640;51.320;9.456;2022-09-17T15:45:27;98851.31;;;11.97;67.61
70982;BME280;58640;51.320;9.456;2022-09-17T15:47:54;98854.56;;;11.86;68.50
70982;BME280;58640;51.320;9.456;2022-09-17T15:50:22;98853.75;;;11.92;68.13
70982;BME280;58640;51.320;9.456;2022-09-17T15:52:49;98847.16;;;11.95;67.31
70982;BME280;58640;51.320;9.456;2022-09-17T15:55:37;98850.06;;;11.93;67.78
70982;BME280;58640;51.320;9.456;2022-09-17T15:58:25;98856.28;;;12.00;67.57
70982;BME280;58640;51.320;9.456;2022-09-17T16:06:34;98841.03;;;11.79;67.30
70982;BME280;58640;51.320;9.456;2022-09-17T16:09:00;98840.19;;;11.72;67.15
70982;BME280;58640;51.320;9.456;2022-09-17T16:11:28;98834.34;;;11.69;67.27
70982;BME280;58640;51.320;9.456;2022-09-17T16:13:56;98828.31;;;11.67;67.08